Time;durP1;ratioP1;P1;durP2;ratioP2;P2;SDS_P1;SDS_P2;PMS_P1;PMS_P2;Temp;Humidity;BMP_temperature;BMP_pressure;BME280_temperature;BME280_humidity;BME280_pressure;Samples;Min_cycle;Max_cycle;Signal;HPM_P1;HPM_P2
2020/12/16 00:00:10;;;;;;;11.67;10.20;;;7.40;99.90;;;;;;5011401;28;20235;-64
2020/12/16 00:02:37;;;;;;;11.50;10.30;;;7.40;99.90;;;;;;4993779;28;20191;-65
2020/12/16 00:05:05;;;;;;;13.37;11.70;;;7.30;99.90;;;;;;5011240;28;20408;-64
2020/12/16 00:07:30;;;;;;;16.23;10.67;;;7.30;99.90;;;;;;5011665;28;20889;-64
2020/12/16 00:09:56;;;;;;;13.93;11.70;;;7.30;99.90;;;;;;5011096;28;20503;-65
2020/12/16 00:12:22;;;;;;;15.70;13.37;;;7.20;99.90;;;;;;5011374;28;20649;-64
2020/12/16 00:14:47;;;;;;;12.03;10.60;;;7.10;99.90;;;;;;4993497;28;20192;-64
2020/12/16 00:17:13;;;;;;;16.07;14.30;;;7.20;99.90;;;;;;5009935;28;20187;-65
2020/12/16 00:19:40;;;;;;;41.97;15.70;;;7.20;99.90;;;;;;5011291;28;20207;-64
2020/12/16 00:22:06;;;;;;;68.53;15.00;;;7.30;99.90;;;;;;5010913;28;20177;-64
2020/12/16 00:24:32;;;;;;;100.53;14.57;;;7.20;99.90;;;;;;5011492;28;20417;-64
2020/12/16 00:26:57;;;;;;;66.63;13.90;;;7.20;99.90;;;;;;5011113;28;20676;-64
2020/12/16 00:29:23;;;;;;;77.37;15.97;;;7.30;99.90;;;;;;5012311;28;20216;-64
2020/12/16 00:31:49;;;;;;;79.27;13.77;;;7.20;99.90;;;;;;5010679;28;20191;-64
2020/12/16 00:34:14;;;;;;;60.33;13.17;;;7.20;99.90;;;;;;5011079;28;20180;-64
2020/12/16 00:36:41;;;;;;;93.17;16.50;;;7.20;99.90;;;;;;5011331;28;20271;-65
2020/12/16 00:39:09;;;;;;;82.00;16.37;;;7.20;99.90;;;;;;5010970;28;20266;-64
2020/12/16 00:41:35;;;;;;;41.20;15.77;;;7.20;99.90;;;;;;5011033;28;20419;-64
2020/12/16 00:44:02;;;;;;;105.47;16.97;;;7.20;99.90;;;;;;5011262;28;20889;-64
2020/12/16 00:46:28;;;;;;;83.70;17.53;;;7.20;99.90;;;;;;5010986;28;20422;-65
2020/12/16 00:48:54;;;;;;;80.77;16.97;;;7.20;99.90;;;;;;5011073;28;20415;-64
2020/12/16 00:51:20;;;;;;;30.47;14.90;;;7.10;99.90;;;;;;5010860;28;20422;-64
2020/12/16 00:53:46;;;;;;;55.80;14.70;;;7.20;99.90;;;;;;5011005;28;20638;-64
2020/12/16 00:56:12;;;;;;;55.07;14.53;;;7.20;99.90;;;;;;5011265;28;20251;-64
2020/12/16 00:58:38;;;;;;;25.90;14.70;;;7.10;99.90;;;;;;5010658;28;20192;-64
2020/12/16 01:01:05;;;;;;;33.80;14.90;;;7.10;99.90;;;;;;5011108;28;20470;-65
2020/12/16 01:03:31;;;;;;;29.03;14.80;;;7.20;99.90;;;;;;5010840;28;20172;-65
2020/12/16 01:05:57;;;;;;;30.50;16.27;;;7.20;99.90;;;;;;5010791;28;20522;-64
2020/12/16 01:08:23;;;;;;;26.53;15.87;;;7.30;99.90;;;;;;5010724;28;20431;-64
2020/12/16 01:10:48;;;;;;;32.87;16.57;;;7.30;99.90;;;;;;4993188;28;20767;-65
2020/12/16 01:13:14;;;;;;;28.37;15.67;;;7.30;99.90;;;;;;5010905;28;20168;-65
2020/12/16 01:15:40;;;;;;;27.73;15.77;;;7.40;99.90;;;;;;5010946;28;20176;-65
2020/12/16 01:18:05;;;;;;;28.57;15.13;;;7.40;99.90;;;;;;5010756;28;20233;-64
2020/12/16 01:20:31;;;;;;;26.83;14.00;;;7.50;99.90;;;;;;5010879;28;20200;-64
2020/12/16 01:22:57;;;;;;;34.57;15.17;;;7.50;99.90;;;;;;5010586;28;20622;-64
2020/12/16 01:25:22;;;;;;;30.70;16.17;;;7.50;99.90;;;;;;5010713;28;20180;-65
2020/12/16 01:28:07;;;;;;;29.33;15.43;;;7.50;99.90;;;;;;5010668;28;20169;-64
2020/12/16 01:30:32;;;;;;;56.80;15.03;;;7.60;99.90;;;;;;5012200;28;20604;-65
2020/12/16 01:32:58;;;;;;;36.87;15.67;;;7.50;99.90;;;;;;5011361;28;20523;-64
2020/12/16 01:35:25;;;;;;;42.67;16.57;;;7.50;99.90;;;;;;5013040;28;20226;-64
2020/12/16 01:37:52;;;;;;;61.73;16.60;;;7.50;99.90;;;;;;5021251;28;20627;-64
2020/12/16 01:40:19;;;;;;;31.10;15.37;;;7.50;99.90;;;;;;5033889;28;20962;-65
2020/12/16 01:42:45;;;;;;;55.33;15.97;;;7.50;99.90;;;;;;5018797;28;20506;-65
2020/12/16 01:45:18;;;;;;;36.30;16.23;;;7.50;99.90;;;;;;5014253;28;20443;-65
2020/12/16 01:47:43;;;;;;;35.83;16.23;;;7.50;99.90;;;;;;5013908;28;20199;-64
2020/12/16 01:50:11;;;;;;;56.37;16.53;;;7.50;99.90;;;;;;5013921;28;20415;-65
2020/12/16 01:52:38;;;;;;;27.87;14.40;;;7.50;99.90;;;;;;5014004;28;20190;-64
2020/12/16 01:55:05;;;;;;;34.57;16.10;;;7.50;99.90;;;;;;5013934;28;20482;-64
2020/12/16 01:57:35;;;;;;;53.23;15.37;;;7.50;99.90;;;;;;5014837;28;20422;-64
2020/12/16 02:00:07;;;;;;;39.17;15.03;;;7.50;99.90;;;;;;5033556;28;20482;-64
2020/12/16 02:02:40;;;;;;;41.60;15.40;;;7.50;99.90;;;;;;5033242;28;20418;-64
2020/12/16 02:05:07;;;;;;;57.23;15.10;;;7.40;99.90;;;;;;5013916;28;20747;-65
2020/12/16 02:07:33;;;;;;;47.30;16.20;;;7.50;99.90;;;;;;5013484;28;20474;-64
2020/12/16 02:09:59;;;;;;;34.77;15.03;;;7.50;99.90;;;;;;5013657;28;20420;-64
2020/12/16 02:12:30;;;;;;;32.93;14.40;;;7.50;99.90;;;;;;5013485;28;20267;-65
2020/12/16 02:14:55;;;;;;;81.57;13.77;;;7.60;99.90;;;;;;5013441;28;20894;-64
2020/12/16 02:17:21;;;;;;;31.73;14.73;;;7.50;99.90;;;;;;5013381;28;20411;-65
2020/12/16 02:19:53;;;;;;;34.90;13.37;;;7.50;99.90;;;;;;5013527;28;20295;-64
2020/12/16 02:22:19;;;;;;;41.47;13.97;;;7.50;99.90;;;;;;5013302;28;20679;-65
2020/12/16 02:24:58;;;;;;;70.53;14.17;;;7.50;99.90;;;;;;5013278;28;20868;-64
2020/12/16 02:27:24;;;;;;;34.37;12.73;;;7.60;99.90;;;;;;5012818;28;20515;-65
2020/12/16 02:29:56;;;;;;;26.40;12.73;;;7.60;99.90;;;;;;5006887;28;20526;-65
2020/12/16 02:32:29;;;;;;;24.10;12.17;;;7.50;99.90;;;;;;5012999;28;20201;-65
2020/12/16 02:34:56;;;;;;;21.60;12.10;;;7.60;99.90;;;;;;5012904;28;20451;-64
2020/12/16 02:37:22;;;;;;;24.33;12.17;;;7.60;99.90;;;;;;5012684;28;20420;-65
2020/12/16 02:39:49;;;;;;;55.67;12.73;;;7.60;99.90;;;;;;5012696;28;20858;-65
2020/12/16 02:42:25;;;;;;;22.10;11.90;;;7.60;99.90;;;;;;5012531;28;20482;-65
2020/12/16 02:44:57;;;;;;;22.67;11.37;;;7.50;99.90;;;;;;5011724;28;20940;-65
2020/12/16 02:47:23;;;;;;;27.13;12.50;;;7.60;99.90;;;;;;5012855;28;20465;-64
2020/12/16 02:49:49;;;;;;;28.93;12.30;;;7.60;99.90;;;;;;4995510;28;20521;-64
2020/12/16 02:52:14;;;;;;;32.70;13.10;;;7.60;99.90;;;;;;5012607;28;20802;-64
2020/12/16 02:54:40;;;;;;;48.17;12.23;;;7.50;99.90;;;;;;5012539;28;20180;-64
2020/12/16 02:57:06;;;;;;;62.60;13.53;;;7.50;99.90;;;;;;5012657;28;20172;-64
2020/12/16 02:59:32;;;;;;;27.97;11.53;;;7.50;99.90;;;;;;5012509;28;20197;-65
2020/12/16 03:01:58;;;;;;;33.47;13.00;;;7.50;99.90;;;;;;5012214;28;20427;-64
2020/12/16 03:04:24;;;;;;;39.90;13.17;;;7.50;99.90;;;;;;5012521;28;20180;-65
2020/12/16 03:06:52;;;;;;;31.13;12.67;;;7.50;99.90;;;;;;5012215;28;20415;-65
2020/12/16 03:09:21;;;;;;;39.53;12.30;;;7.50;99.90;;;;;;5012696;28;20442;-65
2020/12/16 03:11:50;;;;;;;43.77;11.67;;;7.50;99.90;;;;;;5012021;28;20447;-65
2020/12/16 03:14:16;;;;;;;27.70;12.20;;;7.50;99.90;;;;;;5012383;28;20474;-64
2020/12/16 03:16:42;;;;;;;71.70;13.23;;;7.50;99.90;;;;;;5012303;28;20428;-65
2020/12/16 03:19:07;;;;;;;41.37;13.30;;;7.50;99.90;;;;;;5012428;28;20260;-65
2020/12/16 03:21:33;;;;;;;38.07;14.00;;;7.50;99.90;;;;;;5012287;28;20635;-65
2020/12/16 03:23:58;;;;;;;66.63;13.53;;;7.50;99.90;;;;;;5012227;28;20168;-65
2020/12/16 03:26:24;;;;;;;55.37;13.03;;;7.50;99.90;;;;;;5012000;28;20492;-65
2020/12/16 03:28:50;;;;;;;55.80;12.83;;;7.50;99.90;;;;;;5012073;28;20176;-65
2020/12/16 03:31:16;;;;;;;33.53;12.33;;;7.50;99.90;;;;;;5014284;28;20256;-65
2020/12/16 03:33:46;;;;;;;48.67;12.00;;;7.50;99.90;;;;;;5012027;28;20176;-64
2020/12/16 03:36:19;;;;;;;77.10;13.07;;;7.50;99.90;;;;;;5011816;28;20415;-65
2020/12/16 03:38:46;;;;;;;115.60;13.60;;;7.60;99.90;;;;;;5000363;28;20524;-65
2020/12/16 03:41:14;;;;;;;39.63;11.40;;;7.60;99.90;;;;;;4992735;28;20423;-64
2020/12/16 03:43:40;;;;;;;40.83;11.23;;;7.70;99.90;;;;;;4992388;28;20479;-64
2020/12/16 03:46:09;;;;;;;21.80;10.00;;;7.60;99.90;;;;;;4992054;28;21351;-65
2020/12/16 03:48:36;;;;;;;55.57;11.33;;;7.60;99.90;;;;;;4991976;28;20189;-65
2020/12/16 03:51:04;;;;;;;40.87;11.47;;;7.60;99.90;;;;;;4991992;28;20416;-64
2020/12/16 03:53:29;;;;;;;34.77;11.93;;;7.60;99.90;;;;;;4992109;28;20424;-65
2020/12/16 03:55:55;;;;;;;27.67;10.77;;;7.60;99.90;;;;;;4991629;28;20735;-65
2020/12/16 03:58:20;;;;;;;22.97;10.10;;;7.60;99.90;;;;;;4991872;28;20221;-65
2020/12/16 04:00:46;;;;;;;22.97;10.73;;;7.60;99.90;;;;;;4991718;28;20640;-65
2020/12/16 04:03:12;;;;;;;22.50;10.77;;;7.50;99.90;;;;;;4991750;28;20181;-65
2020/12/16 04:05:37;;;;;;;20.40;10.10;;;7.50;99.90;;;;;;4991967;28;20180;-65
2020/12/16 04:08:03;;;;;;;19.80;9.90;;;7.40;99.90;;;;;;4990809;28;20228;-64
2020/12/16 04:10:29;;;;;;;18.27;9.10;;;7.50;99.90;;;;;;4991791;28;20465;-65
2020/12/16 04:12:55;;;;;;;20.73;9.73;;;7.50;99.90;;;;;;4991783;28;20431;-65
2020/12/16 04:15:20;;;;;;;19.73;9.63;;;7.50;99.90;;;;;;4991710;28;20177;-65
2020/12/16 04:17:46;;;;;;;19.27;9.37;;;7.60;99.90;;;;;;4991659;28;20219;-64
2020/12/16 04:20:11;;;;;;;19.80;9.10;;;7.50;99.90;;;;;;4991620;28;20211;-65
2020/12/16 04:22:37;;;;;;;17.97;8.77;;;7.60;99.90;;;;;;4991558;28;20263;-65
2020/12/16 04:25:04;;;;;;;17.73;9.03;;;7.60;99.90;;;;;;4991624;28;20592;-65
2020/12/16 04:27:30;;;;;;;19.00;9.27;;;7.60;99.90;;;;;;4991400;28;20264;-65
2020/12/16 04:29:55;;;;;;;17.53;9.63;;;7.70;99.90;;;;;;4997490;28;20487;-64
2020/12/16 04:32:21;;;;;;;17.37;9.20;;;7.80;99.90;;;;;;5011074;28;20172;-64
2020/12/16 04:34:46;;;;;;;18.77;9.27;;;7.70;99.90;;;;;;5011131;28;20729;-65
2020/12/16 04:37:12;;;;;;;17.13;10.00;;;7.70;99.90;;;;;;5011150;28;20187;-64
2020/12/16 04:39:37;;;;;;;18.67;9.50;;;7.60;99.90;;;;;;5010933;28;20267;-65
2020/12/16 04:42:03;;;;;;;15.57;9.00;;;7.70;99.90;;;;;;5011045;28;20550;-65
2020/12/16 04:44:29;;;;;;;15.33;9.23;;;7.70;99.90;;;;;;5011447;28;20177;-65
2020/12/16 04:46:55;;;;;;;15.67;8.97;;;7.70;99.90;;;;;;5010861;28;20188;-65
2020/12/16 04:49:20;;;;;;;15.67;10.13;;;7.70;99.90;;;;;;5010834;28;20241;-65
2020/12/16 04:51:46;;;;;;;16.90;9.63;;;7.70;99.90;;;;;;5011453;28;20427;-65
2020/12/16 04:54:12;;;;;;;16.13;8.63;;;7.70;99.90;;;;;;4994075;28;20188;-64
2020/12/16 04:56:40;;;;;;;15.10;9.57;;;7.80;99.90;;;;;;5011507;28;20184;-65
2020/12/16 04:59:07;;;;;;;16.37;10.07;;;7.70;99.90;;;;;;5011258;28;20267;-64
2020/12/16 05:01:41;;;;;;;15.80;9.67;;;7.80;99.90;;;;;;5011422;28;20420;-64
2020/12/16 05:04:08;;;;;;;15.83;9.53;;;7.80;99.90;;;;;;5011491;28;20422;-64
2020/12/16 05:06:38;;;;;;;16.80;9.67;;;7.70;99.90;;;;;;5011319;28;20886;-65
2020/12/16 05:09:10;;;;;;;15.57;9.50;;;7.60;99.90;;;;;;5014023;28;20506;-65
2020/12/16 05:11:38;;;;;;;18.80;10.13;;;7.60;99.90;;;;;;5015169;28;20458;-64
2020/12/16 05:14:25;;;;;;;19.60;11.00;;;7.60;99.90;;;;;;5014914;28;20769;-65
2020/12/16 05:17:05;;;;;;;18.50;10.33;;;7.60;99.90;;;;;;5015116;28;20470;-65
2020/12/16 05:19:42;;;;;;;19.70;10.30;;;7.60;99.90;;;;;;5014980;28;20458;-64
2020/12/16 05:22:28;;;;;;;19.47;9.87;;;7.70;99.90;;;;;;5012324;28;20415;-65
2020/12/16 05:24:56;;;;;;;21.13;10.93;;;7.70;99.90;;;;;;5014297;28;20514;-64
2020/12/16 05:27:27;;;;;;;19.97;11.47;;;7.70;99.90;;;;;;5014257;28;20927;-65
2020/12/16 05:30:01;;;;;;;21.83;10.83;;;7.70;99.90;;;;;;5016157;28;20467;-65
2020/12/16 05:32:29;;;;;;;19.13;12.70;;;7.70;99.90;;;;;;5012294;28;20411;-65
2020/12/16 05:34:56;;;;;;;21.53;12.70;;;7.80;99.90;;;;;;5013913;28;20749;-65
2020/12/16 05:37:36;;;;;;;22.93;13.07;;;7.80;99.90;;;;;;5014117;28;20423;-65
2020/12/16 05:40:05;;;;;;;20.30;11.97;;;7.80;99.90;;;;;;5014048;28;20457;-65
2020/12/16 05:42:32;;;;;;;17.67;10.97;;;7.90;99.90;;;;;;5014141;28;20916;-64
2020/12/16 05:45:05;;;;;;;20.00;11.60;;;7.90;99.90;;;;;;5013951;28;20510;-64
2020/12/16 05:47:31;;;;;;;20.00;11.50;;;7.90;99.90;;;;;;5012732;28;20430;-65
2020/12/16 05:49:56;;;;;;;23.63;12.73;;;7.80;99.90;;;;;;5013806;28;20787;-65
2020/12/16 05:52:22;;;;;;;22.60;12.03;;;7.90;99.90;;;;;;5013907;28;20180;-65
2020/12/16 05:54:52;;;;;;;19.00;11.57;;;7.90;99.90;;;;;;5013654;28;20183;-64
2020/12/16 05:57:20;;;;;;;17.80;12.17;;;7.90;99.90;;;;;;5013815;28;20180;-65
2020/12/16 06:00:03;;;;;;;21.27;12.10;;;7.90;99.90;;;;;;5013686;28;20462;-64
2020/12/16 06:02:39;;;;;;;20.37;12.57;;;8.00;99.90;;;;;;5013819;28;20801;-65
2020/12/16 06:05:08;;;;;;;22.90;12.83;;;8.00;99.90;;;;;;5013508;28;20411;-65
2020/12/16 06:07:41;;;;;;;18.17;12.63;;;8.00;99.90;;;;;;5013649;28;20412;-64
2020/12/16 06:10:08;;;;;;;19.63;13.27;;;8.00;99.90;;;;;;5013524;28;20486;-66
2020/12/16 06:12:38;;;;;;;23.57;14.10;;;8.10;99.90;;;;;;5013287;28;20466;-66
2020/12/16 06:15:09;;;;;;;26.00;14.27;;;8.10;99.90;;;;;;5010831;28;20415;-65
2020/12/16 06:17:40;;;;;;;23.00;14.57;;;8.20;99.90;;;;;;5013513;28;20562;-65
2020/12/16 06:20:09;;;;;;;25.53;14.77;;;8.10;99.90;;;;;;5012798;28;20447;-65
2020/12/16 06:22:35;;;;;;;26.13;15.93;;;8.20;99.90;;;;;;5013235;28;20416;-66
2020/12/16 06:25:07;;;;;;;27.00;16.57;;;8.20;99.90;;;;;;5013088;28;20412;-65
2020/12/16 06:27:43;;;;;;;25.70;16.10;;;8.20;99.90;;;;;;5012985;28;20415;-66
2020/12/16 06:30:23;;;;;;;23.07;14.83;;;8.30;99.90;;;;;;5014892;28;20581;-66
2020/12/16 06:33:01;;;;;;;25.23;16.47;;;8.30;99.90;;;;;;4995470;28;20488;-66
2020/12/16 06:35:27;;;;;;;25.50;15.00;;;8.20;99.90;;;;;;5012235;28;20479;-67
2020/12/16 06:38:18;;;;;;;21.43;13.93;;;8.30;99.90;;;;;;5013386;28;20443;-66
2020/12/16 06:40:57;;;;;;;20.63;14.83;;;8.20;99.90;;;;;;5012926;28;20463;-66
2020/12/16 06:43:31;;;;;;;22.67;14.60;;;8.30;99.90;;;;;;5012773;28;20415;-66
2020/12/16 06:46:03;;;;;;;26.40;15.63;;;8.30;99.90;;;;;;5012689;28;20419;-66
2020/12/16 06:48:38;;;;;;;25.13;14.93;;;8.30;99.90;;;;;;5012582;28;20411;-65
2020/12/16 06:51:15;;;;;;;21.17;14.43;;;8.30;99.90;;;;;;5012742;28;20422;-66
2020/12/16 06:53:41;;;;;;;25.60;17.30;;;8.30;99.90;;;;;;5013045;28;20760;-65
2020/12/16 06:56:07;;;;;;;23.13;15.00;;;8.30;99.90;;;;;;5012774;28;20481;-65
2020/12/16 06:58:35;;;;;;;24.87;15.20;;;8.30;99.90;;;;;;5012367;28;20408;-65
2020/12/16 07:01:13;;;;;;;20.10;14.60;;;8.40;99.90;;;;;;5012588;28;20644;-66
2020/12/16 07:03:39;;;;;;;21.50;14.87;;;8.50;99.90;;;;;;5012639;28;20416;-65
2020/12/16 07:06:10;;;;;;;31.07;18.33;;;8.50;99.90;;;;;;5012758;28;20427;-66
2020/12/16 07:08:35;;;;;;;29.37;17.40;;;8.50;99.90;;;;;;5012427;28;20177;-65
2020/12/16 07:11:01;;;;;;;28.70;17.73;;;8.40;99.90;;;;;;5012291;28;20848;-65
2020/12/16 07:13:29;;;;;;;27.10;17.33;;;8.40;99.90;;;;;;5012305;28;20175;-65
2020/12/16 07:16:10;;;;;;;25.97;16.43;;;8.50;99.90;;;;;;5012398;28;20255;-65
2020/12/16 07:18:47;;;;;;;28.53;17.07;;;8.60;99.90;;;;;;5012023;28;20431;-66
2020/12/16 07:21:14;;;;;;;28.33;16.53;;;8.60;99.90;;;;;;5012157;28;20417;-65
2020/12/16 07:23:45;;;;;;;26.43;16.30;;;8.60;99.90;;;;;;5012539;28;20415;-66
2020/12/16 07:26:31;;;;;;;23.63;15.60;;;8.60;99.90;;;;;;5012478;28;20495;-65
2020/12/16 07:28:58;;;;;;;26.53;16.33;;;8.50;99.90;;;;;;5012486;28;20412;-65
2020/12/16 07:31:25;;;;;;;26.93;16.27;;;8.50;99.90;;;;;;5021402;28;20481;-65
2020/12/16 07:33:51;;;;;;;25.13;16.03;;;8.50;99.90;;;;;;5015198;28;20472;-66
2020/12/16 07:36:18;;;;;;;29.40;15.87;;;8.50;99.90;;;;;;5027491;28;20415;-66
2020/12/16 07:38:49;;;;;;;23.77;15.47;;;8.50;99.90;;;;;;5031943;28;20430;-66
2020/12/16 07:41:28;;;;;;;24.23;15.13;;;8.50;99.90;;;;;;5015690;28;20419;-66
2020/12/16 07:43:56;;;;;;;22.57;14.53;;;8.50;99.90;;;;;;5032308;28;20418;-66
2020/12/16 07:46:22;;;;;;;26.90;15.33;;;8.50;99.90;;;;;;5031775;28;20417;-66
2020/12/16 07:48:48;;;;;;;21.90;14.97;;;8.50;99.90;;;;;;5031943;28;20924;-65
2020/12/16 07:51:14;;;;;;;25.20;15.80;;;8.50;99.90;;;;;;5026766;28;20426;-66
2020/12/16 07:53:48;;;;;;;24.07;15.47;;;8.50;99.90;;;;;;5018478;28;20214;-65
2020/12/16 07:56:15;;;;;;;26.40;16.33;;;8.50;99.90;;;;;;5031518;28;20652;-66
2020/12/16 07:58:41;;;;;;;30.03;16.40;;;8.50;99.90;;;;;;5031289;28;20422;-66
2020/12/16 08:01:08;;;;;;;31.77;16.93;;;8.60;99.90;;;;;;5029506;28;20818;-65
2020/12/16 08:03:35;;;;;;;22.97;15.37;;;8.60;99.90;;;;;;5020139;28;20172;-66
2020/12/16 08:06:01;;;;;;;32.20;17.40;;;8.60;99.90;;;;;;5013457;28;20473;-66
2020/12/16 08:08:27;;;;;;;27.67;16.90;;;8.60;99.90;;;;;;5024376;28;20412;-66
2020/12/16 08:10:53;;;;;;;26.07;16.57;;;8.60;99.90;;;;;;5023058;28;20513;-66
2020/12/16 08:13:23;;;;;;;29.10;17.13;;;8.70;99.90;;;;;;5017759;28;20648;-65
2020/12/16 08:15:55;;;;;;;31.27;16.90;;;8.70;99.90;;;;;;5025567;28;20180;-66
2020/12/16 08:18:21;;;;;;;28.57;17.67;;;8.70;99.90;;;;;;5021723;28;20573;-66
2020/12/16 08:20:46;;;;;;;28.43;17.00;;;8.70;99.90;;;;;;5020795;28;20538;-66
2020/12/16 08:23:14;;;;;;;27.70;15.83;;;8.60;99.90;;;;;;5022973;28;20510;-66
2020/12/16 08:25:41;;;;;;;34.67;18.73;;;8.70;99.90;;;;;;5019042;28;20509;-66
2020/12/16 08:28:07;;;;;;;30.87;18.53;;;8.80;99.90;;;;;;5028138;28;20415;-66
2020/12/16 08:30:34;;;;;;;43.27;19.37;;;8.70;99.90;;;;;;5023069;28;20453;-65
2020/12/16 08:33:03;;;;;;;39.87;19.30;;;8.70;99.90;;;;;;5000764;28;20421;-66
2020/12/16 08:35:48;;;;;;;35.47;18.60;;;8.80;99.90;;;;;;5011904;28;20447;-67
2020/12/16 08:38:44;;;;;;;34.40;18.23;;;8.80;99.90;;;;;;4999355;28;20429;-66
2020/12/16 08:41:12;;;;;;;30.70;18.30;;;8.80;99.90;;;;;;4996802;28;20439;-66
2020/12/16 08:43:42;;;;;;;34.60;19.07;;;8.80;99.90;;;;;;5014885;28;20419;-66
2020/12/16 08:46:15;;;;;;;35.87;19.13;;;8.90;99.90;;;;;;5004087;28;20419;-65
2020/12/16 08:49:01;;;;;;;32.47;19.00;;;8.80;99.90;;;;;;5015007;28;20834;-65
2020/12/16 08:51:32;;;;;;;29.70;18.90;;;8.90;99.90;;;;;;5014948;28;20430;-66
2020/12/16 08:54:01;;;;;;;33.30;18.57;;;8.90;99.90;;;;;;5008819;28;20416;-66
2020/12/16 08:56:33;;;;;;;29.10;18.67;;;8.90;99.90;;;;;;4995413;28;20424;-65
2020/12/16 08:59:23;;;;;;;38.23;21.20;;;9.00;99.90;;;;;;4994738;28;20866;-66
2020/12/16 09:01:51;;;;;;;35.43;19.30;;;9.00;99.90;;;;;;5006253;28;20866;-66
2020/12/16 09:04:25;;;;;;;30.07;18.57;;;9.00;99.90;;;;;;4997216;28;20434;-67
2020/12/16 09:07:03;;;;;;;26.10;17.67;;;9.00;99.90;;;;;;5009723;28;21348;-66
2020/12/16 09:09:30;;;;;;;31.17;17.57;;;9.00;99.90;;;;;;5011623;28;20514;-66
2020/12/16 09:11:56;;;;;;;30.33;17.13;;;9.00;99.90;;;;;;5009223;28;20420;-65
2020/12/16 09:14:23;;;;;;;25.30;17.70;;;9.00;99.90;;;;;;5008884;28;20191;-66
2020/12/16 09:16:49;;;;;;;34.50;20.40;;;9.10;99.90;;;;;;5002076;28;20207;-65
2020/12/16 09:19:16;;;;;;;35.63;20.83;;;9.10;99.90;;;;;;5009886;28;20549;-66
2020/12/16 09:21:41;;;;;;;31.50;19.97;;;9.10;99.90;;;;;;5013537;28;20176;-67
2020/12/16 09:24:07;;;;;;;33.40;19.60;;;9.10;99.90;;;;;;5013965;28;20566;-65
2020/12/16 09:26:34;;;;;;;30.60;18.80;;;9.20;99.90;;;;;;5005839;28;20181;-66
2020/12/16 09:29:00;;;;;;;36.73;19.43;;;9.20;99.90;;;;;;5009051;28;20253;-66
2020/12/16 09:31:26;;;;;;;36.33;20.07;;;9.20;99.90;;;;;;5004368;28;20520;-66
2020/12/16 09:33:58;;;;;;;41.97;21.87;;;9.20;99.90;;;;;;5012078;28;20581;-67
2020/12/16 09:36:28;;;;;;;42.43;21.30;;;9.20;99.90;;;;;;5007380;28;20687;-66
2020/12/16 09:38:58;;;;;;;43.67;20.20;;;9.30;99.90;;;;;;4998339;28;20471;-65
2020/12/16 09:41:25;;;;;;;40.60;21.13;;;9.30;99.90;;;;;;5010065;28;20427;-65
2020/12/16 09:43:50;;;;;;;46.73;21.53;;;9.30;99.90;;;;;;5013893;28;20427;-65
2020/12/16 09:46:24;;;;;;;54.97;22.90;;;9.40;99.90;;;;;;5009938;28;20412;-66
2020/12/16 09:49:00;;;;;;;47.63;22.60;;;9.40;99.90;;;;;;5005767;28;20184;-67
2020/12/16 09:51:25;;;;;;;54.97;20.80;;;9.30;99.90;;;;;;4998768;28;20486;-66
2020/12/16 09:53:52;;;;;;;48.53;22.17;;;9.40;99.90;;;;;;4996388;28;20420;-66
2020/12/16 09:56:27;;;;;;;52.10;21.33;;;9.30;99.90;;;;;;4998251;28;20631;-66
2020/12/16 09:58:53;;;;;;;45.23;18.87;;;9.40;99.90;;;;;;4993765;28;20456;-65
2020/12/16 10:01:20;;;;;;;47.97;20.87;;;9.40;99.90;;;;;;4978100;28;20463;-65
2020/12/16 10:03:48;;;;;;;50.50;20.17;;;9.40;99.90;;;;;;5008948;28;20192;-64
2020/12/16 10:06:15;;;;;;;42.93;20.67;;;9.40;99.90;;;;;;5010001;28;20263;-65
2020/12/16 10:08:42;;;;;;;42.03;19.53;;;9.40;99.90;;;;;;4993960;28;20420;-65
2020/12/16 10:11:14;;;;;;;39.50;19.43;;;9.50;99.90;;;;;;5000170;28;20477;-65
2020/12/16 10:13:43;;;;;;;37.93;18.93;;;9.50;99.90;;;;;;5002667;28;20405;-65
2020/12/16 10:16:10;;;;;;;35.23;18.10;;;9.40;99.90;;;;;;5010030;28;20415;-65
2020/12/16 10:18:36;;;;;;;38.60;17.97;;;9.40;99.90;;;;;;5004850;28;20414;-66
2020/12/16 10:21:03;;;;;;;37.00;18.17;;;9.40;99.90;;;;;;4993686;28;20428;-66
2020/12/16 10:23:28;;;;;;;39.47;18.87;;;9.50;99.90;;;;;;4993900;28;20420;-66
2020/12/16 10:25:54;;;;;;;31.43;17.97;;;9.60;99.90;;;;;;4993617;28;20890;-65
2020/12/16 10:28:21;;;;;;;46.57;22.93;;;9.60;99.90;;;;;;4993496;28;20631;-65
2020/12/16 10:30:51;;;;;;;32.93;17.43;;;9.60;99.90;;;;;;5000572;28;20227;-65
2020/12/16 10:33:17;;;;;;;35.10;17.97;;;9.60;99.90;;;;;;5012991;28;20785;-65
2020/12/16 10:35:43;;;;;;;32.00;17.97;;;9.60;99.90;;;;;;5013750;28;20447;-65
2020/12/16 10:38:10;;;;;;;24.10;14.97;;;9.60;99.90;;;;;;5013571;28;20554;-65
2020/12/16 10:40:36;;;;;;;25.57;15.40;;;9.70;99.90;;;;;;5013592;28;20453;-65
2020/12/16 10:43:03;;;;;;;28.37;16.27;;;9.60;99.90;;;;;;5013459;28;20514;-65
2020/12/16 10:45:29;;;;;;;23.03;14.70;;;9.60;99.90;;;;;;5013204;28;20702;-65
2020/12/16 10:47:59;;;;;;;18.47;11.70;;;9.60;99.90;;;;;;5013305;28;20502;-65
2020/12/16 10:50:30;;;;;;;17.50;11.67;;;9.70;99.90;;;;;;5013216;28;20198;-65
2020/12/16 10:52:59;;;;;;;16.30;11.77;;;9.70;99.90;;;;;;5013257;28;20438;-65
2020/12/16 10:55:25;;;;;;;16.23;12.43;;;9.60;99.90;;;;;;5013115;28;20411;-66
2020/12/16 10:57:51;;;;;;;19.50;13.23;;;9.60;99.90;;;;;;5009407;28;20451;-66
2020/12/16 11:00:18;;;;;;;19.37;14.27;;;9.60;99.90;;;;;;5013172;28;20466;-65
2020/12/16 11:02:43;;;;;;;22.23;13.67;;;9.50;99.90;;;;;;5012955;28;20738;-65
2020/12/16 11:05:09;;;;;;;23.53;14.57;;;9.60;99.90;;;;;;5012441;28;20176;-64
2020/12/16 11:07:34;;;;;;;22.27;15.30;;;9.60;99.90;;;;;;5012766;28;20222;-66
2020/12/16 11:10:00;;;;;;;22.70;14.57;;;9.60;99.90;;;;;;5013145;28;20168;-66
2020/12/16 11:12:25;;;;;;;24.27;16.07;;;9.50;99.90;;;;;;5012709;28;20187;-64
2020/12/16 11:14:51;;;;;;;22.27;14.63;;;9.60;99.90;;;;;;5012628;28;20271;-66
2020/12/16 11:17:17;;;;;;;19.57;14.10;;;9.60;99.90;;;;;;5012836;28;20176;-67
2020/12/16 11:19:42;;;;;;;22.37;15.83;;;9.60;99.90;;;;;;5012507;28;20207;-66
2020/12/16 11:22:08;;;;;;;24.60;17.20;;;9.60;99.90;;;;;;5012737;28;20542;-66
2020/12/16 11:24:34;;;;;;;22.10;16.07;;;9.60;99.90;;;;;;5012773;28;20184;-67
2020/12/16 11:27:00;;;;;;;25.43;16.07;;;9.60;99.90;;;;;;5012456;28;20423;-65
2020/12/16 11:29:25;;;;;;;22.83;15.87;;;9.70;99.90;;;;;;5012695;28;20195;-65
2020/12/16 11:31:54;;;;;;;25.37;16.67;;;9.70;99.90;;;;;;5013706;28;20219;-65
2020/12/16 11:34:23;;;;;;;25.27;16.13;;;9.70;99.90;;;;;;5012518;28;20184;-66
2020/12/16 11:36:50;;;;;;;24.53;16.57;;;9.70;99.90;;;;;;5012496;28;20983;-65
2020/12/16 11:39:17;;;;;;;22.33;15.87;;;9.70;99.90;;;;;;5012070;28;20236;-66
2020/12/16 11:41:48;;;;;;;25.20;17.33;;;9.80;99.90;;;;;;5012478;28;20510;-67
2020/12/16 11:44:15;;;;;;;28.43;17.10;;;9.80;99.90;;;;;;5010901;28;20426;-67
2020/12/16 11:46:42;;;;;;;29.07;18.13;;;9.80;99.90;;;;;;5012283;28;20188;-65
2020/12/16 11:49:07;;;;;;;28.93;18.57;;;9.80;99.90;;;;;;5012234;28;20834;-65
2020/12/16 11:51:33;;;;;;;33.57;19.73;;;9.80;99.90;;;;;;5012289;28;20208;-67
2020/12/16 11:53:58;;;;;;;30.13;18.70;;;9.80;99.90;;;;;;5012188;28;20180;-65
2020/12/16 11:56:24;;;;;;;35.07;18.33;;;9.70;99.90;;;;;;5011904;28;20534;-67
2020/12/16 11:58:50;;;;;;;27.53;19.17;;;9.70;99.90;;;;;;5012021;28;20188;-66
2020/12/16 12:01:17;;;;;;;26.37;18.67;;;9.70;99.90;;;;;;5011784;28;20180;-66
2020/12/16 12:03:43;;;;;;;31.70;19.30;;;9.60;99.90;;;;;;5012262;28;20419;-65
2020/12/16 12:06:10;;;;;;;34.93;21.50;;;9.60;99.90;;;;;;5012180;28;20183;-66
2020/12/16 12:08:36;;;;;;;28.30;18.47;;;9.60;99.90;;;;;;5011792;28;20418;-67
2020/12/16 12:11:02;;;;;;;34.27;18.53;;;9.70;99.90;;;;;;5011955;28;20757;-64
2020/12/16 12:13:27;;;;;;;26.63;17.67;;;9.70;99.90;;;;;;5011684;28;20195;-66
2020/12/16 12:15:53;;;;;;;32.17;19.33;;;9.70;99.90;;;;;;5011925;28;20176;-65
2020/12/16 12:18:18;;;;;;;29.27;19.47;;;9.70;99.90;;;;;;5011615;28;20172;-66
2020/12/16 12:20:44;;;;;;;36.67;20.60;;;9.70;99.90;;;;;;5011452;28;20694;-65
2020/12/16 12:23:10;;;;;;;30.43;18.97;;;9.70;99.90;;;;;;5011964;28;20252;-66
2020/12/16 12:25:35;;;;;;;28.30;18.07;;;9.70;99.90;;;;;;5011694;28;20262;-66
2020/12/16 12:28:01;;;;;;;27.47;19.00;;;9.80;99.90;;;;;;5011838;28;20172;-68
2020/12/16 12:30:27;;;;;;;26.97;17.33;;;9.80;99.90;;;;;;5013554;28;20263;-65
2020/12/16 12:32:52;;;;;;;25.90;17.60;;;9.90;99.90;;;;;;5011415;28;20283;-67
2020/12/16 12:35:18;;;;;;;24.27;17.03;;;10.00;99.90;;;;;;5011669;28;20177;-66
2020/12/16 12:37:44;;;;;;;22.53;16.27;;;9.90;99.90;;;;;;5011900;28;20289;-68
2020/12/16 12:40:09;;;;;;;21.73;15.30;;;9.90;99.90;;;;;;5011530;28;20203;-66
2020/12/16 12:42:35;;;;;;;23.93;15.50;;;10.00;99.90;;;;;;5011426;28;20251;-66